Time;durP1;ratioP1;P1;durP2;ratioP2;P2;SDS_P1;SDS_P2;PMS_P1;PMS_P2;Temp;Humidity;BMP_temperature;BMP_pressure;BME280_temperature;BME280_humidity;BME280_pressure;Samples;Min_cycle;Max_cycle;Signal;HPM_P1;HPM_P2
2023/03/06 00:01:51;;;;;;;;;;;;;;;;;;4235393;28;20048;-35
2023/03/06 00:03:53;;;;;;;;;;;;;;;;;;4230068;28;20386;-34
2023/03/06 00:05:56;;;;;;;;;;;;;;;;;;4227468;28;20251;-34
2023/03/06 00:07:56;;;;;;;;;;;;;;;;;;4223632;28;19919;-34
2023/03/06 00:09:57;;;;;;;;;;;;;;;;;;4234071;28;19920;-33
2023/03/06 00:11:58;;;;;;;;;;;;;;;;;;4235768;28;20391;-34
2023/03/06 00:13:59;;;;;;;;;;;;;;;;;;4217430;28;19916;-34
2023/03/06 00:16:01;;;;;;;;;;;;;;;;;;4232107;28;19920;-34
2023/03/06 00:18:02;;;;;;;;;;;;;;;;;;4200729;28;20271;-34
2023/03/06 00:20:02;;;;;;;;;;;;;;;;;;4235120;28;19960;-34
2023/03/06 00:22:03;;;;;;;;;;;;;;;;;;4235493;28;19922;-34
2023/03/06 00:24:05;;;;;;;;;;;;;;;;;;4235322;28;19960;-35
2023/03/06 00:26:07;;;;;;;;;;;;;;;;;;4235418;28;19919;-34
2023/03/06 00:28:07;;;;;;;;;;;;;;;;;;4234888;28;19988;-35
2023/03/06 00:30:09;;;;;;;;;;;;;;;;;;4226024;28;20018;-35
2023/03/06 00:32:10;;;;;;;;;;;;;;;;;;4226662;28;19916;-34
2023/03/06 00:34:11;;;;;;;;;;;;;;;;;;4229819;28;19922;-34
2023/03/06 00:36:13;;;;;;;;;;;;;;;;;;4235263;28;19915;-34
2023/03/06 00:38:15;;;;;;;;;;;;;;;;;;4234299;28;19922;-34
2023/03/06 00:40:15;;;;;;;;;;;;;;;;;;4235431;28;19955;-35
2023/03/06 00:42:16;;;;;;;;;;;;;;;;;;4235432;28;20333;-34
2023/03/06 00:44:18;;;;;;;;;;;;;;;;;;4234657;28;19919;-34
2023/03/06 00:46:19;;;;;;;;;;;;;;;;;;4206900;28;19916;-33
2023/03/06 00:48:20;;;;;;;;;;;;;;;;;;4218255;28;20367;-33
2023/03/06 00:50:22;;;;;;;;;;;;;;;;;;4227995;28;19919;-34
2023/03/06 00:52:23;;;;;;;;;;;;;;;;;;4218560;28;20371;-34
2023/03/06 00:54:24;;;;;;;;;;;;;;;;;;4231348;28;19916;-34
2023/03/06 00:56:25;;;;;;;;;;;;;;;;;;4227369;28;19915;-33
2023/03/06 00:58:26;;;;;;;;;;;;;;;;;;4224206;28;19915;-34
2023/03/06 01:00:27;;;;;;;;;;;;;;;;;;4220720;28;20379;-33
2023/03/06 01:02:28;;;;;;;;;;;;;;;;;;4229299;28;20276;-34
2023/03/06 01:04:29;;;;;;;;;;;;;;;;;;4231780;28;19920;-34
2023/03/06 01:06:30;;;;;;;;;;;;;;;;;;4232523;28;19923;-33
2023/03/06 01:08:31;;;;;;;;;;;;;;;;;;4232161;28;19989;-33
2023/03/06 01:10:32;;;;;;;;;;;;;;;;;;4214199;28;19928;-33
2023/03/06 01:12:33;;;;;;;;;;;;;;;;;;4211261;28;19923;-33
2023/03/06 01:14:35;;;;;;;;;;;;;;;;;;4197442;28;19966;-34
2023/03/06 01:16:36;;;;;;;;;;;;;;;;;;4223041;28;20370;-34
2023/03/06 01:18:37;;;;;;;;;;;;;;;;;;4214197;28;19916;-34
2023/03/06 01:20:38;;;;;;;;;;;;;;;;;;4231684;28;19927;-33
2023/03/06 01:22:39;;;;;;;;;;;;;;;;;;4232207;28;19968;-33
2023/03/06 01:24:40;;;;;;;;;;;;;;;;;;4223664;28;19981;-34
2023/03/06 01:26:42;;;;;;;;;;;;;;;;;;4215291;28;20325;-33
2023/03/06 01:28:43;;;;;;;;;;;;;;;;;;4211599;28;20225;-33
2023/03/06 01:30:44;;;;;;;;;;;;;;;;;;4231946;28;20340;-34
2023/03/06 01:32:46;;;;;;;;;;;;;;;;;;4213920;28;20402;-33
2023/03/06 01:34:48;;;;;;;;;;;;;;;;;;4231625;28;19973;-33
2023/03/06 01:36:49;;;;;;;;;;;;;;;;;;4231867;28;20212;-34
2023/03/06 01:38:50;;;;;;;;;;;;;;;;;;4232155;28;19968;-34
2023/03/06 01:40:51;;;;;;;;;;;;;;;;;;4207466;28;19917;-34
2023/03/06 01:42:52;;;;;;;;;;;;;;;;;;4224221;28;19926;-33
2023/03/06 01:44:53;;;;;;;;;;;;;;;;;;4213579;28;20346;-33
2023/03/06 01:46:54;;;;;;;;;;;;;;;;;;4221506;28;19916;-33
2023/03/06 01:48:55;;;;;;;;;;;;;;;;;;4226372;28;19916;-34
2023/03/06 01:50:56;;;;;;;;;;;;;;;;;;4204968;28;19928;-33
2023/03/06 01:52:57;;;;;;;;;;;;;;;;;;4208214;28;19937;-33
2023/03/06 01:54:58;;;;;;;;;;;;;;;;;;4199301;28;20013;-33
2023/03/06 01:56:59;;;;;;;;;;;;;;;;;;4209782;28;19962;-33
2023/03/06 01:59:00;;;;;;;;;;;;;;;;;;4221672;28;19969;-33
2023/03/06 02:01:01;;;;;;;;;;;;;;;;;;4203690;28;20423;-34
2023/03/06 02:03:03;;;;;;;;;;;;;;;;;;4226944;28;19919;-34
2023/03/06 02:05:04;;;;;;;;;;;;;;;;;;4227727;28;19916;-33
2023/03/06 02:07:05;;;;;;;;;;;;;;;;;;4213390;28;20305;-34
2023/03/06 02:09:08;;;;;;;;;;;;;;;;;;4223567;28;19980;-34
2023/03/06 02:11:09;;;;;;;;;;;;;;;;;;4219168;28;19920;-34
2023/03/06 02:13:09;;;;;;;;;;;;;;;;;;4228475;28;20017;-34
2023/03/06 02:15:11;;;;;;;;;;;;;;;;;;4231135;28;20286;-33
2023/03/06 02:17:12;;;;;;;;;;;;;;;;;;4218305;28;19920;-33
2023/03/06 02:19:13;;;;;;;;;;;;;;;;;;4225128;28;19989;-33
2023/03/06 02:21:19;;;;;;;;;;;;;;;;;;4231125;28;19916;-33
2023/03/06 02:23:19;;;;;;;;;;;;;;;;;;4231189;28;19969;-33
2023/03/06 02:25:20;;;;;;;;;;;;;;;;;;4205430;28;20588;-34
2023/03/06 02:27:21;;;;;;;;;;;;;;;;;;4224910;28;19919;-33
2023/03/06 02:29:24;;;;;;;;;;;;;;;;;;4212577;28;19916;-34
2023/03/06 02:31:25;;;;;;;;;;;;;;;;;;4231114;28;20371;-34
2023/03/06 02:33:26;;;;;;;;;;;;;;;;;;4212954;28;19923;-33
2023/03/06 02:35:27;;;;;;;;;;;;;;;;;;4221633;28;20012;-35
2023/03/06 02:37:28;;;;;;;;;;;;;;;;;;4218370;28;20002;-36
2023/03/06 02:39:29;;;;;;;;;;;;;;;;;;4211542;28;19915;-34
2023/03/06 02:41:31;;;;;;;;;;;;;;;;;;4212725;28;19939;-34
2023/03/06 02:43:32;;;;;;;;;;;;;;;;;;4187826;28;19920;-34
2023/03/06 02:45:33;;;;;;;;;;;;;;;;;;4199900;28;19916;-34
2023/03/06 02:47:34;;;;;;;;;;;;;;;;;;4226228;28;19993;-33
2023/03/06 02:49:35;;;;;;;;;;;;;;;;;;4226184;28;19920;-33
2023/03/06 02:51:37;;;;;;;;;;;;;;;;;;4221272;28;19994;-33
2023/03/06 02:53:38;;;;;;;;;;;;;;;;;;4230654;28;19972;-34
2023/03/06 02:55:39;;;;;;;;;;;;;;;;;;4230845;28;19915;-34
2023/03/06 02:57:40;;;;;;;;;;;;;;;;;;4212281;28;20385;-34
2023/03/06 02:59:41;;;;;;;;;;;;;;;;;;4218585;28;20329;-35
2023/03/06 03:01:42;;;;;;;;;;;;;;;;;;4203397;28;19928;-34
2023/03/06 03:03:43;;;;;;;;;;;;;;;;;;4207699;28;19920;-33
2023/03/06 03:05:44;;;;;;;;;;;;;;;;;;4209776;28;19962;-34
2023/03/06 03:07:53;;;;;;;;;;;;;;;;;;4219361;28;19916;-34
2023/03/06 03:09:54;;;;;;;;;;;;;;;;;;4212410;28;19920;-33
2023/03/06 03:11:55;;;;;;;;;;;;;;;;;;4212328;28;19947;-34
2023/03/06 03:13:56;;;;;;;;;;;;;;;;;;4213426;28;20304;-33
2023/03/06 03:15:58;;;;;;;;;;;;;;;;;;4225120;28;19920;-34
2023/03/06 03:17:59;;;;;;;;;;;;;;;;;;4217717;28;19958;-34
2023/03/06 03:20:00;;;;;;;;;;;;;;;;;;4221242;28;19961;-34
2023/03/06 03:22:01;;;;;;;;;;;;;;;;;;4204210;28;19919;-34
2023/03/06 03:24:03;;;;;;;;;;;;;;;;;;4205792;28;19919;-34
2023/03/06 03:26:04;;;;;;;;;;;;;;;;;;4216388;28;19916;-33
2023/03/06 03:28:05;;;;;;;;;;;;;;;;;;4204502;28;19928;-33
2023/03/06 03:30:06;;;;;;;;;;;;;;;;;;4229071;28;19926;-33
2023/03/06 03:32:08;;;;;;;;;;;;;;;;;;4211926;28;20296;-33
2023/03/06 03:34:10;;;;;;;;;;;;;;;;;;4205606;28;19916;-34
2023/03/06 03:36:13;;;;;;;;;;;;;;;;;;4197708;28;20295;-34
2023/03/06 03:38:18;;;;;;;;;;;;;;;;;;4204983;28;20417;-33
2023/03/06 03:40:20;;;;;;;;;;;;;;;;;;4219556;28;20381;-33
2023/03/06 03:42:23;;;;;;;;;;;;;;;;;;4218885;28;19954;-33
2023/03/06 03:44:24;;;;;;;;;;;;;;;;;;4201436;28;19916;-33
2023/03/06 03:46:26;;;;;;;;;;;;;;;;;;4200710;28;19916;-33
2023/03/06 03:48:29;;;;;;;;;;;;;;;;;;4211711;28;19916;-35
2023/03/06 03:50:31;;;;;;;;;;;;;;;;;;4211725;28;19920;-34
2023/03/06 03:52:31;;;;;;;;;;;;;;;;;;4211735;28;20458;-33
2023/03/06 03:54:32;;;;;;;;;;;;;;;;;;4209931;28;20506;-34
2023/03/06 03:56:34;;;;;;;;;;;;;;;;;;4202905;28;19970;-33
2023/03/06 03:58:40;;;;;;;;;;;;;;;;;;4200922;28;19966;-34
2023/03/06 04:00:41;;;;;;;;;;;;;;;;;;4213599;28;20314;-33
2023/03/06 04:02:47;;;;;;;;;;;;;;;;;;4212174;28;19924;-34
2023/03/06 04:04:56;;;;;;;;;;;;;;;;;;4219741;28;19923;-34
2023/03/06 04:06:57;;;;;;;;;;;;;;;;;;4207245;28;19923;-34
2023/03/06 04:08:58;;;;;;;;;;;;;;;;;;4226873;28;19939;-35
2023/03/06 04:10:59;;;;;;;;;;;;;;;;;;4211597;28;19920;-35
2023/03/06 04:13:00;;;;;;;;;;;;;;;;;;4212054;28;19920;-33
2023/03/06 04:15:02;;;;;;;;;;;;;;;;;;4212093;28;19927;-34
2023/03/06 04:17:03;;;;;;;;;;;;;;;;;;4225185;28;19970;-35
2023/03/06 04:19:04;;;;;;;;;;;;;;;;;;4225983;28;20004;-33
2023/03/06 04:21:05;;;;;;;;;;;;;;;;;;4201667;28;19920;-34
2023/03/06 04:23:07;;;;;;;;;;;;;;;;;;4212128;28;19942;-33
2023/03/06 04:25:08;;;;;;;;;;;;;;;;;;4216572;28;19975;-34
2023/03/06 04:27:09;;;;;;;;;;;;;;;;;;4209866;28;19916;-34
2023/03/06 04:29:10;;;;;;;;;;;;;;;;;;4204460;28;20198;-33
2023/03/06 04:31:12;;;;;;;;;;;;;;;;;;4224425;28;20279;-33
2023/03/06 04:33:13;;;;;;;;;;;;;;;;;;4226791;28;19920;-33
2023/03/06 04:35:14;;;;;;;;;;;;;;;;;;4213962;28;19969;-33
2023/03/06 04:37:25;;;;;;;;;;;;;;;;;;4209028;28;19916;-34
2023/03/06 04:39:27;;;;;;;;;;;;;;;;;;4223881;28;19927;-34
2023/03/06 04:41:29;;;;;;;;;;;;;;;;;;4231637;28;20322;-34
2023/03/06 04:43:30;;;;;;;;;;;;;;;;;;4230772;28;19968;-33
2023/03/06 04:45:31;;;;;;;;;;;;;;;;;;4209053;28;20010;-33
2023/03/06 04:47:32;;;;;;;;;;;;;;;;;;4224731;28;19965;-33
2023/03/06 04:49:33;;;;;;;;;;;;;;;;;;4226436;28;19927;-34
2023/03/06 04:51:35;;;;;;;;;;;;;;;;;;4218319;28;20421;-33
2023/03/06 04:53:36;;;;;;;;;;;;;;;;;;4214311;28;19916;-33
2023/03/06 04:55:37;;;;;;;;;;;;;;;;;;4225093;28;20541;-35
2023/03/06 04:57:38;;;;;;;;;;;;;;;;;;4225504;28;19916;-33
2023/03/06 04:59:40;;;;;;;;;;;;;;;;;;4231993;28;19922;-34
2023/03/06 05:01:41;;;;;;;;;;;;;;;;;;4218207;28;19916;-33
2023/03/06 05:03:42;;;;;;;;;;;;;;;;;;4232092;28;19938;-34
2023/03/06 05:05:43;;;;;;;;;;;;;;;;;;4213593;28;19928;-33
2023/03/06 05:07:44;;;;;;;;;;;;;;;;;;4219957;28;19916;-33
2023/03/06 05:09:45;;;;;;;;;;;;;;;;;;4230064;28;19985;-33
2023/03/06 05:11:46;;;;;;;;;;;;;;;;;;4231912;28;20382;-34
2023/03/06 05:13:48;;;;;;;;;;;;;;;;;;4232214;28;19986;-35
2023/03/06 05:15:49;;;;;;;;;;;;;;;;;;4226259;28;19919;-33
2023/03/06 05:17:50;;;;;;;;;;;;;;;;;;4228777;28;19920;-33
2023/03/06 05:19:51;;;;;;;;;;;;;;;;;;4231271;28;19922;-33
2023/03/06 05:21:52;;;;;;;;;;;;;;;;;;4225852;28;19928;-34
2023/03/06 05:23:54;;;;;;;;;;;;;;;;;;4225366;28;19915;-36
2023/03/06 05:25:55;;;;;;;;;;;;;;;;;;4231645;28;19916;-49
2023/03/06 05:27:57;;;;;;;;;;;;;;;;;;4229188;28;19920;-33
2023/03/06 05:29:58;;;;;;;;;;;;;;;;;;4220245;28;19950;-34
2023/03/06 05:31:59;;;;;;;;;;;;;;;;;;4232004;28;19916;-34
2023/03/06 05:34:01;;;;;;;;;;;;;;;;;;4219104;28;19916;-33
2023/03/06 05:36:02;;;;;;;;;;;;;;;;;;4216241;28;19920;-33
2023/03/06 05:38:03;;;;;;;;;;;;;;;;;;4230912;28;19919;-34
2023/03/06 05:40:05;;;;;;;;;;;;;;;;;;4223492;28;19920;-34
2023/03/06 05:42:06;;;;;;;;;;;;;;;;;;4224573;28;20294;-34
2023/03/06 05:44:08;;;;;;;;;;;;;;;;;;4217091;28;19931;-35
2023/03/06 05:46:09;;;;;;;;;;;;;;;;;;4218416;28;19916;-34
2023/03/06 05:48:10;;;;;;;;;;;;;;;;;;4231420;28;19961;-33
2023/03/06 05:50:12;;;;;;;;;;;;;;;;;;4230772;28;19915;-34
2023/03/06 05:52:16;;;;;;;;;;;;;;;;;;4231258;28;19920;-33
2023/03/06 05:54:17;;;;;;;;;;;;;;;;;;4217444;28;19961;-34
2023/03/06 05:56:20;;;;;;;;;;;;;;;;;;4224875;28;19965;-34
2023/03/06 05:58:21;;;;;;;;;;;;;;;;;;4223850;28;19960;-34
2023/03/06 06:00:22;;;;;;;;;;;;;;;;;;4216939;28;19920;-34
2023/03/06 06:02:23;;;;;;;;;;;;;;;;;;4214026;28;20035;-34
2023/03/06 06:04:25;;;;;;;;;;;;;;;;;;4228824;28;19920;-33
2023/03/06 06:06:26;;;;;;;;;;;;;;;;;;4229014;28;19916;-33
2023/03/06 06:08:27;;;;;;;;;;;;;;;;;;4216797;28;19931;-33
2023/03/06 06:10:29;;;;;;;;;;;;;;;;;;4226336;28;19920;-33
2023/03/06 06:12:30;;;;;;;;;;;;;;;;;;4224022;28;20395;-34
2023/03/06 06:14:32;;;;;;;;;;;;;;;;;;4218292;28;20349;-34
2023/03/06 06:16:33;;;;;;;;;;;;;;;;;;4228552;28;19923;-33
2023/03/06 06:18:34;;;;;;;;;;;;;;;;;;4228053;28;20331;-33
2023/03/06 06:20:35;;;;;;;;;;;;;;;;;;4226708;28;19920;-34
2023/03/06 06:22:37;;;;;;;;;;;;;;;;;;4228827;28;20288;-33
2023/03/06 06:24:37;;;;;;;;;;;;;;;;;;4228494;28;20035;-34
2023/03/06 06:26:39;;;;;;;;;;;;;;;;;;4229238;28;19923;-33
2023/03/06 06:28:40;;;;;;;;;;;;;;;;;;4212745;28;20367;-35
2023/03/06 06:30:41;;;;;;;;;;;;;;;;;;4212024;28;19919;-34
2023/03/06 06:32:43;;;;;;;;;;;;;;;;;;4221173;28;20387;-34
2023/03/06 06:34:44;;;;;;;;;;;;;;;;;;4216674;28;19923;-34
2023/03/06 06:36:46;;;;;;;;;;;;;;;;;;4212796;28;20292;-34
2023/03/06 06:38:46;;;;;;;;;;;;;;;;;;4226170;28;20076;-34
2023/03/06 06:40:48;;;;;;;;;;;;;;;;;;4220330;28;19945;-35
2023/03/06 06:42:49;;;;;;;;;;;;;;;;;;4215953;28;20391;-36
2023/03/06 06:44:51;;;;;;;;;;;;;;;;;;4214452;28;19923;-35
2023/03/06 06:46:52;;;;;;;;;;;;;;;;;;4208112;28;19920;-35
2023/03/06 06:48:53;;;;;;;;;;;;;;;;;;4214717;28;20332;-37
2023/03/06 06:50:54;;;;;;;;;;;;;;;;;;4216191;28;19927;-34
2023/03/06 06:52:55;;;;;;;;;;;;;;;;;;4218757;28;20509;-37
2023/03/06 06:54:56;;;;;;;;;;;;;;;;;;4220583;27;19960;-35
2023/03/06 06:56:57;;;;;;;;;;;;;;;;;;4230932;27;20034;-34
2023/03/06 06:59:00;;;;;;;;;;;;;;;;;;4226951;27;19971;-34
2023/03/06 07:01:01;;;;;;;;;;;;;;;;;;4228423;27;20732;-35
2023/03/06 07:03:02;;;;;;;;;;;;;;;;;;4214256;28;19924;-36
2023/03/06 07:05:04;;;;;;;;;;;;;;;;;;4213991;28;19919;-35
2023/03/06 07:07:05;;;;;;;;;;;;;;;;;;4220428;27;20401;-35
2023/03/06 07:09:05;;;;;;;;;;;;;;;;;;4216197;27;19929;-35
2023/03/06 07:11:06;;;;;;;;;;;;;;;;;;4224163;27;19927;-38
2023/03/06 07:13:08;;;;;;;;;;;;;;;;;;4217586;27;19923;-35
2023/03/06 07:15:09;;;;;;;;;;;;;;;;;;4209073;27;20099;-35
2023/03/06 07:17:10;;;;;;;;;;;;;;;;;;4215446;27;19927;-37
2023/03/06 07:19:11;;;;;;;;;;;;;;;;;;4223591;27;19963;-36
2023/03/06 07:21:12;;;;;;;;;;;;;;;;;;4226730;27;20014;-37
2023/03/06 07:23:13;;;;;;;;;;;;;;;;;;4222859;27;19923;-36
2023/03/06 07:25:14;;;;;;;;;;;;;;;;;;4201019;27;19993;-36
2023/03/06 07:27:15;;;;;;;;;;;;;;;;;;4186233;28;19921;-36
2023/03/06 07:29:16;;;;;;;;;;;;;;;;;;4190066;28;19967;-35
2023/03/06 07:31:17;;;;;;;;;;;;;;;;;;4193326;28;19924;-38
2023/03/06 07:33:18;;;;;;;;;;;;;;;;;;4186627;28;19924;-36
2023/03/06 07:35:19;;;;;;;;;;;;;;;;;;4184051;28;20386;-35
2023/03/06 07:37:20;;;;;;;;;;;;;;;;;;4189579;28;19924;-36
2023/03/06 07:39:21;;;;;;;;;;;;;;;;;;4185113;28;19960;-34
2023/03/06 07:41:23;;;;;;;;;;;;;;;;;;4175977;28;20288;-38
2023/03/06 07:43:24;;;;;;;;;;;;;;;;;;4179480;28;19932;-35
2023/03/06 07:45:34;;;;;;;;;;;;;;;;;;4184638;28;20327;-37
2023/03/06 07:47:35;;;;;;;;;;;;;;;;;;4178383;28;19924;-35
2023/03/06 07:49:37;;;;;;;;;;;;;;;;;;4185463;28;19931;-35
2023/03/06 07:51:38;;;;;;;;;;;;;;;;;;4178442;28;19925;-38
2023/03/06 07:53:39;;;;;;;;;;;;;;;;;;4180406;28;20422;-36
2023/03/06 07:55:40;;;;;;;;;;;;;;;;;;4176838;28;19966;-36
2023/03/06 07:57:41;;;;;;;;;;;;;;;;;;4176388;28;20409;-39
2023/03/06 07:59:42;;;;;;;;;;;;;;;;;;4174483;28;20555;-37
2023/03/06 08:01:43;;;;;;;;;;;;;;;;;;4179757;28;20685;-39
2023/03/06 08:03:45;;;;;;;;;;;;;;;;;;4178550;28;19920;-36
2023/03/06 08:05:46;;;;;;;;;;;;;;;;;;4185787;28;19978;-38
2023/03/06 08:07:47;;;;;;;;;;;;;;;;;;4191057;28;19930;-40
2023/03/06 08:09:48;;;;;;;;;;;;;;;;;;4185853;28;19928;-39
2023/03/06 08:11:49;;;;;;;;;;;;;;;;;;4185000;28;19924;-39
2023/03/06 08:13:51;;;;;;;;;;;;;;;;;;4180301;28;19924;-37
2023/03/06 08:15:53;;;;;;;;;;;;;;;;;;4181231;28;19928;-38
2023/03/06 08:17:54;;;;;;;;;;;;;;;;;;4170414;28;19924;-36
2023/03/06 08:19:55;;;;;;;;;;;;;;;;;;4184021;28;20287;-35
2023/03/06 08:21:56;;;;;;;;;;;;;;;;;;4187977;28;20039;-36
2023/03/06 08:23:57;;;;;;;;;;;;;;;;;;4184275;28;20005;-39
2023/03/06 08:25:58;;;;;;;;;;;;;;;;;;4194234;28;20412;-39
2023/03/06 08:27:59;;;;;;;;;;;;;;;;;;4195700;28;19928;-38
2023/03/06 08:30:00;;;;;;;;;;;;;;;;;;4183457;28;20045;-36
2023/03/06 08:32:01;;;;;;;;;;;;;;;;;;4161616;28;20544;-39
2023/03/06 08:34:02;;;;;;;;;;;;;;;;;;4163481;28;20884;-40
2023/03/06 08:36:03;;;;;;;;;;;;;;;;;;4167059;28;19924;-37
2023/03/06 08:38:04;;;;;;;;;;;;;;;;;;4187323;28;19924;-39
2023/03/06 08:40:05;;;;;;;;;;;;;;;;;;4197068;28;20344;-39
2023/03/06 08:42:07;;;;;;;;;;;;;;;;;;4189144;28;20409;-37
2023/03/06 08:44:08;;;;;;;;;;;;;;;;;;4197612;28;20004;-38
2023/03/06 08:46:09;;;;;;;;;;;;;;;;;;4194934;28;19989;-38
2023/03/06 08:48:10;;;;;;;;;;;;;;;;;;4188824;28;19974;-36
2023/03/06 08:50:11;;;;;;;;;;;;;;;;;;4179621;28;20052;-38
2023/03/06 08:52:11;;;;;;;;;;;;;;;;;;4199128;28;19924;-36
2023/03/06 08:54:12;;;;;;;;;;;;;;;;;;4194536;28;20062;-39
2023/03/06 08:56:14;;;;;;;;;;;;;;;;;;4180734;28;19932;-36
2023/03/06 08:58:14;;;;;;;;;;;;;;;;;;4169890;28;19924;-36
2023/03/06 09:00:16;;;;;;;;;;;;;;;;;;4192309;28;20447;-37
2023/03/06 09:02:17;;;;;;;;;;;;;;;;;;4184434;28;19997;-38
2023/03/06 09:04:18;;;;;;;;;;;;;;;;;;4196021;28;20368;-37
2023/03/06 09:06:19;;;;;;;;;;;;;;;;;;4200306;28;20013;-35
2023/03/06 09:08:20;;;;;;;;;;;;;;;;;;4186925;28;19924;-37
2023/03/06 09:10:21;;;;;;;;;;;;;;;;;;4188857;28;19928;-36
2023/03/06 09:12:23;;;;;;;;;;;;;;;;;;4196499;28;21345;-35
2023/03/06 09:14:24;;;;;;;;;;;;;;;;;;4191234;28;20013;-39
2023/03/06 09:16:25;;;;;;;;;;;;;;;;;;4198461;28;19924;-38
2023/03/06 09:18:28;;;;;;;;;;;;;;;;;;4195427;28;19924;-36
2023/03/06 09:20:29;;;;;;;;;;;;;;;;;;4192264;28;20664;-39
2023/03/06 09:22:30;;;;;;;;;;;;;;;;;;4189966;28;19923;-39
2023/03/06 09:24:31;;;;;;;;;;;;;;;;;;4190399;28;19927;-38
2023/03/06 09:26:33;;;;;;;;;;;;;;;;;;4181562;28;19996;-41
2023/03/06 09:28:34;;;;;;;;;;;;;;;;;;4189949;28;19977;-40
2023/03/06 09:30:35;;;;;;;;;;;;;;;;;;4187832;28;20293;-42
2023/03/06 09:32:36;;;;;;;;;;;;;;;;;;4187271;28;19923;-41
2023/03/06 09:34:37;;;;;;;;;;;;;;;;;;4188308;28;19924;-37
2023/03/06 09:36:40;;;;;;;;;;;;;;;;;;4195099;28;19973;-34
2023/03/06 09:38:41;;;;;;;;;;;;;;;;;;4183511;28;20209;-38
2023/03/06 09:40:42;;;;;;;;;;;;;;;;;;4195885;28;19923;-38
2023/03/06 09:42:43;;;;;;;;;;;;;;;;;;4194878;28;20804;-37
2023/03/06 09:44:45;;;;;;;;;;;;;;;;;;4195447;28;19930;-38
2023/03/06 09:46:46;;;;;;;;;;;;;;;;;;4191842;28;19924;-39
2023/03/06 09:48:47;;;;;;;;;;;;;;;;;;4194535;28;19928;-39
2023/03/06 09:50:48;;;;;;;;;;;;;;;;;;4191316;28;19924;-37
2023/03/06 09:52:49;;;;;;;;;;;;;;;;;;4197687;28;19949;-41
2023/03/06 09:54:50;;;;;;;;;;;;;;;;;;4192593;28;19924;-36
2023/03/06 09:56:52;;;;;;;;;;;;;;;;;;4187494;28;19985;-39
2023/03/06 09:58:53;;;;;;;;;;;;;;;;;;4177743;28;20414;-38
2023/03/06 10:00:54;;;;;;;;;;;;;;;;;;4166834;28;19924;-39
2023/03/06 10:02:55;;;;;;;;;;;;;;;;;;4151525;28;20063;-40
2023/03/06 10:04:58;;;;;;;;;;;;;;;;;;4188681;28;19928;-38
2023/03/06 10:06:59;;;;;;;;;;;;;;;;;;4187488;28;20005;-40
2023/03/06 10:09:00;;;;;;;;;;;;;;;;;;4185470;28;19924;-40
2023/03/06 10:11:02;;;;;;;;;;;;;;;;;;4193651;28;20678;-39
2023/03/06 10:13:03;;;;;;;;;;;;;;;;;;4160232;28;20200;-39
2023/03/06 10:15:04;;;;;;;;;;;;;;;;;;4189596;28;19924;-40
2023/03/06 10:17:06;;;;;;;;;;;;;;;;;;4190779;28;20179;-39
2023/03/06 10:19:07;;;;;;;;;;;;;;;;;;4181581;28;20477;-40
2023/03/06 10:21:08;;;;;;;;;;;;;;;;;;4157422;28;19924;-41
2023/03/06 10:23:10;;;;;;;;;;;;;;;;;;4184591;28;20339;-39
2023/03/06 10:25:11;;;;;;;;;;;;;;;;;;4192291;28;19960;-38
2023/03/06 10:27:12;;;;;;;;;;;;;;;;;;4192280;28;19928;-38
2023/03/06 10:29:14;;;;;;;;;;;;;;;;;;4186477;28;20310;-38
2023/03/06 10:31:15;;;;;;;;;;;;;;;;;;4169483;28;19928;-40
2023/03/06 10:33:16;;;;;;;;;;;;;;;;;;4186522;28;19957;-38
2023/03/06 10:35:17;;;;;;;;;;;;;;;;;;4154822;28;20843;-38
2023/03/06 10:37:18;;;;;;;;;;;;;;;;;;4183574;28;20298;-37
2023/03/06 10:39:20;;;;;;;;;;;;;;;;;;4179442;28;19931;-37
2023/03/06 10:41:21;;;;;;;;;;;;;;;;;;4189605;28;19928;-37
2023/03/06 10:43:22;;;;;;;;;;;;;;;;;;4167221;28;20544;-37
2023/03/06 10:45:23;;;;;;;;;;;;;;;;;;4149162;28;20383;-36
2023/03/06 10:47:25;;;;;;;;;;;;;;;;;;4186403;28;20294;-40
2023/03/06 10:49:27;;;;;;;;;;;;;;;;;;4192649;28;19924;-40
2023/03/06 10:51:27;;;;;;;;;;;;;;;;;;4189708;28;20489;-38
2023/03/06 10:53:29;;;;;;;;;;;;;;;;;;4192099;28;19924;-39
2023/03/06 10:55:30;;;;;;;;;;;;;;;;;;4194530;28;19924;-44
2023/03/06 10:57:31;;;;;;;;;;;;;;;;;;4186184;28;19928;-39
2023/03/06 10:59:32;;;;;;;;;;;;;;;;;;4193490;28;19923;-41
2023/03/06 11:01:34;;;;;;;;;;;;;;;;;;4181319;28;19935;-41
2023/03/06 11:03:35;;;;;;;;;;;;;;;;;;4163569;28;20050;-42
2023/03/06 11:05:36;;;;;;;;;;;;;;;;;;4178738;28;19924;-42
2023/03/06 11:07:37;;;;;;;;;;;;;;;;;;4190408;28;19976;-40
2023/03/06 11:09:39;;;;;;;;;;;;;;;;;;4196696;28;20272;-37
2023/03/06 11:11:40;;;;;;;;;;;;;;;;;;4200358;28;19984;-37
2023/03/06 11:13:41;;;;;;;;;;;;;;;;;;4191286;28;19930;-37
2023/03/06 11:15:42;;;;;;;;;;;;;;;;;;4178274;28;20056;-39
2023/03/06 11:17:43;;;;;;;;;;;;;;;;;;4192772;28;19923;-38
2023/03/06 11:19:44;;;;;;;;;;;;;;;;;;4193990;28;20884;-38
2023/03/06 11:21:46;;;;;;;;;;;;;;;;;;4193567;28;19920;-40
2023/03/06 11:23:47;;;;;;;;;;;;;;;;;;4190796;28;20390;-38
2023/03/06 11:25:49;;;;;;;;;;;;;;;;;;4193476;28;20013;-37
2023/03/06 11:27:50;;;;;;;;;;;;;;;;;;4193453;28;20290;-37
2023/03/06 11:29:51;;;;;;;;;;;;;;;;;;4193784;28;20366;-37
2023/03/06 11:31:52;;;;;;;;;;;;;;;;;;4189425;28;19920;-38
2023/03/06 11:33:53;;;;;;;;;;;;;;;;;;4180799;28;19962;-39
2023/03/06 11:35:54;;;;;;;;;;;;;;;;;;4179029;28;20019;-36
2023/03/06 11:37:57;;;;;;;;;;;;;;;;;;4190391;28;19968;-40
2023/03/06 11:39:58;;;;;;;;;;;;;;;;;;4190398;28;19976;-40
2023/03/06 11:41:59;;;;;;;;;;;;;;;;;;4194424;28;19924;-39
2023/03/06 11:44:00;;;;;;;;;;;;;;;;;;4198063;28;19931;-38
2023/03/06 11:46:01;;;;;;;;;;;;;;;;;;4180031;28;19946;-39
2023/03/06 11:48:02;;;;;;;;;;;;;;;;;;4191577;28;19951;-38
2023/03/06 11:50:03;;;;;;;;;;;;;;;;;;4191799;28;19932;-40
2023/03/06 11:52:04;;;;;;;;;;;;;;;;;;4190796;28;19924;-38
2023/03/06 11:54:05;;;;;;;;;;;;;;;;;;4186517;28;20469;-42
2023/03/06 11:56:06;;;;;;;;;;;;;;;;;;4190739;28;20586;-41
2023/03/06 11:58:08;;;;;;;;;;;;;;;;;;4188193;28;19981;-41
2023/03/06 12:00:09;;;;;;;;;;;;;;;;;;4181352;28;19946;-43
2023/03/06 12:02:10;;;;;;;;;;;;;;;;;;4178689;28;19924;-39
2023/03/06 12:04:11;;;;;;;;;;;;;;;;;;4188084;28;19924;-38
2023/03/06 12:06:13;;;;;;;;;;;;;;;;;;4189434;28;19977;-38
2023/03/06 12:08:15;;;;;;;;;;;;;;;;;;4187482;28;19969;-41
2023/03/06 12:10:17;;;;;;;;;;;;;;;;;;4195878;28;19923;-43
2023/03/06 12:12:17;;;;;;;;;;;;;;;;;;4191112;28;19932;-39
2023/03/06 12:14:19;;;;;;;;;;;;;;;;;;4189331;28;19919;-36
2023/03/06 12:16:21;;;;;;;;;;;;;;;;;;4190374;28;19931;-39
2023/03/06 12:18:22;;;;;;;;;;;;;;;;;;4173213;28;20339;-38
2023/03/06 12:20:23;;;;;;;;;;;;;;;;;;4194676;28;19931;-38
2023/03/06 12:22:24;;;;;;;;;;;;;;;;;;4195688;28;19924;-38
2023/03/06 12:24:25;;;;;;;;;;;;;;;;;;4197901;28;19928;-39
2023/03/06 12:26:26;;;;;;;;;;;;;;;;;;4203249;28;20005;-37
2023/03/06 12:28:28;;;;;;;;;;;;;;;;;;4199263;28;19931;-38
2023/03/06 12:30:29;;;;;;;;;;;;;;;;;;4192878;28;20022;-37
2023/03/06 12:32:31;;;;;;;;;;;;;;;;;;4199599;28;21569;-38
2023/03/06 12:34:32;;;;;;;;;;;;;;;;;;4190342;28;19939;-38
2023/03/06 12:36:33;;;;;;;;;;;;;;;;;;4195505;28;19927;-39
2023/03/06 12:38:35;;;;;;;;;;;;;;;;;;4193215;28;19924;-37
2023/03/06 12:40:36;;;;;;;;;;;;;;;;;;4198402;28;20370;-35
2023/03/06 12:42:37;;;;;;;;;;;;;;;;;;4197440;28;19927;-38
2023/03/06 12:44:39;;;;;;;;;;;;;;;;;;4193807;28;20007;-39
2023/03/06 12:46:40;;;;;;;;;;;;;;;;;;4189488;28;19977;-36
2023/03/06 12:48:41;;;;;;;;;;;;;;;;;;4202443;28;20358;-40
2023/03/06 12:50:46;;;;;;;;;;;;;;;;;;4193359;28;19957;-39
2023/03/06 12:52:47;;;;;;;;;;;;;;;;;;4195928;28;19946;-35
2023/03/06 12:54:48;;;;;;;;;;;;;;;;;;4198589;28;19923;-38
2023/03/06 12:56:49;;;;;;;;;;;;;;;;;;4196094;28;19977;-42
2023/03/06 12:58:50;;;;;;;;;;;;;;;;;;4158369;28;20486;-39
2023/03/06 13:00:51;;;;;;;;;;;;;;;;;;4187395;28;19924;-40
2023/03/06 13:02:53;;;;;;;;;;;;;;;;;;4173702;28;20400;-39
2023/03/06 13:04:54;;;;;;;;;;;;;;;;;;4185603;27;19923;-39
2023/03/06 13:06:55;;;;;;;;;;;;;;;;;;4191054;28;20950;-37
2023/03/06 13:08:56;;;;;;;;;;;;;;;;;;4147958;28;19924;-38
2023/03/06 13:10:57;;;;;;;;;;;;;;;;;;4197756;28;20801;-36
2023/03/06 13:12:59;;;;;;;;;;;;;;;;;;4192383;28;20526;-40
2023/03/06 13:15:01;;;;;;;;;;;;;;;;;;4195785;27;19931;-39
2023/03/06 13:17:02;;;;;;;;;;;;;;;;;;4192762;28;20462;-38
2023/03/06 13:19:03;;;;;;;;;;;;;;;;;;4196117;27;20006;-36
2023/03/06 13:21:05;;;;;;;;;;;;;;;;;;4183174;28;20299;-36
2023/03/06 13:23:06;;;;;;;;;;;;;;;;;;4202871;28;20342;-37
2023/03/06 13:25:07;;;;;;;;;;;;;;;;;;4196391;28;20302;-39
2023/03/06 13:27:08;;;;;;;;;;;;;;;;;;4198229;28;19928;-38
2023/03/06 13:29:09;;;;;;;;;;;;;;;;;;4194601;28;19932;-37
2023/03/06 13:31:11;;;;;;;;;;;;;;;;;;4194608;27;20056;-41
2023/03/06 13:33:12;;;;;;;;;;;;;;;;;;4182488;28;19924;-38
2023/03/06 13:35:13;;;;;;;;;;;;;;;;;;4198491;28;20345;-38
2023/03/06 13:37:14;;;;;;;;;;;;;;;;;;4194183;28;19924;-39
2023/03/06 13:39:15;;;;;;;;;;;;;;;;;;4200158;28;20380;-38
2023/03/06 13:41:17;;;;;;;;;;;;;;;;;;4192367;28;20002;-37
2023/03/06 13:43:18;;;;;;;;;;;;;;;;;;4199910;28;20386;-39
2023/03/06 13:45:19;;;;;;;;;;;;;;;;;;4181155;28;19974;-39
2023/03/06 13:47:20;;;;;;;;;;;;;;;;;;4190708;28;20699;-37
2023/03/06 13:49:21;;;;;;;;;;;;;;;;;;4198927;28;19950;-38